createdAt,value
2022-09-02T00:01:13.157Z,21.08
2022-09-02T00:03:39.960Z,21.16
2022-09-02T00:06:06.650Z,21.22
2022-09-02T00:08:33.510Z,21.18
2022-09-02T00:11:01.333Z,21.17
2022-09-02T00:13:29.398Z,21.19
2022-09-02T00:15:56.661Z,21.19
2022-09-02T00:18:25.018Z,21.11
2022-09-02T00:20:51.923Z,21.05
2022-09-02T00:23:19.748Z,21.06
2022-09-02T00:25:46.984Z,21.04
2022-09-02T00:28:15.262Z,21.04
2022-09-02T00:30:42.857Z,21.00
2022-09-02T00:33:10.998Z,21.02
2022-09-02T00:35:37.597Z,21.00
2022-09-02T00:38:05.384Z,21.04
2022-09-02T00:40:33.319Z,21.00
2022-09-02T00:43:00.221Z,20.97
2022-09-02T00:45:27.092Z,21.00
2022-09-02T00:47:53.669Z,21.04
2022-09-02T00:50:24.369Z,20.98
2022-09-02T00:52:56.586Z,20.93
2022-09-02T00:55:27.689Z,20.93
2022-09-02T00:58:20.871Z,20.90
2022-09-02T01:00:52.553Z,20.87
2022-09-02T01:03:21.955Z,20.89
2022-09-02T01:05:50.719Z,20.88
2022-09-02T01:08:21.158Z,20.89
2022-09-02T01:10:48.679Z,20.92
2022-09-02T01:13:20.321Z,20.92
2022-09-02T01:15:55.124Z,20.96
2022-09-02T01:18:28.949Z,20.97
2022-09-02T01:20:57.402Z,21.01
2022-09-02T01:23:24.132Z,20.96
2022-09-02T01:25:52.771Z,20.93
2022-09-02T01:28:19.933Z,20.89
2022-09-02T01:30:50.438Z,20.82
2022-09-02T01:33:18.743Z,20.86
2022-09-02T01:35:45.443Z,20.86
2022-09-02T01:38:12.066Z,20.90
2022-09-02T01:40:38.924Z,20.82
2022-09-02T01:43:14.957Z,20.79
2022-09-02T01:45:44.130Z,20.78
2022-09-02T01:48:11.354Z,20.81
2022-09-02T01:50:45.082Z,20.83
2022-09-02T01:53:14.473Z,20.76
2022-09-02T01:55:41.787Z,20.75
2022-09-02T01:58:08.605Z,20.71
2022-09-02T02:00:35.361Z,20.72
2022-09-02T02:03:02.515Z,20.71
2022-09-02T02:05:29.670Z,20.67
2022-09-02T02:07:56.789Z,20.67
2022-09-02T02:10:23.552Z,20.61
2022-09-02T02:12:51.538Z,20.62
2022-09-02T02:15:20.437Z,20.63
2022-09-02T02:17:47.304Z,20.69
2022-09-02T02:20:16.101Z,20.64
2022-09-02T02:22:43.896Z,20.70
2022-09-02T02:25:11.835Z,20.74
2022-09-02T02:27:38.366Z,20.78
2022-09-02T02:30:07.812Z,20.84
2022-09-02T02:32:35.940Z,20.82
2022-09-02T02:35:03.312Z,20.78
2022-09-02T02:37:29.831Z,20.73
2022-09-02T02:39:57.535Z,20.78
2022-09-02T02:42:24.182Z,20.70
2022-09-02T02:44:51.173Z,20.68
2022-09-02T02:47:18.152Z,20.68
2022-09-02T02:49:44.874Z,20.65
2022-09-02T02:52:12.560Z,20.69
2022-09-02T02:54:39.827Z,20.71
2022-09-02T02:57:06.855Z,20.73
2022-09-02T02:59:33.605Z,20.71
2022-09-02T03:02:00.725Z,20.69
2022-09-02T03:04:27.369Z,20.68
2022-09-02T03:06:53.997Z,20.64
2022-09-02T03:09:20.594Z,20.60
2022-09-02T03:11:48.013Z,20.64
2022-09-02T03:14:14.697Z,20.63
2022-09-02T03:16:41.760Z,20.62
2022-09-02T03:19:08.405Z,20.58
2022-09-02T03:21:39.021Z,20.59
2022-09-02T03:24:06.594Z,20.61
2022-09-02T03:26:33.364Z,20.64
2022-09-02T03:28:59.985Z,20.63
2022-09-02T03:31:28.538Z,20.62
2022-09-02T03:33:55.758Z,20.67
2022-09-02T03:36:34.930Z,20.70
2022-09-02T03:39:03.276Z,20.66
2022-09-02T03:41:29.950Z,20.61
2022-09-02T03:43:57.647Z,20.61
2022-09-02T03:46:24.694Z,20.55
2022-09-02T03:48:51.835Z,20.58
2022-09-02T03:51:20.667Z,20.63
2022-09-02T03:53:47.385Z,20.55
2022-09-02T03:56:15.455Z,20.57
2022-09-02T03:58:44.390Z,20.59
2022-09-02T04:01:16.618Z,20.61
2022-09-02T04:03:44.468Z,20.61
2022-09-02T04:06:12.951Z,20.57
2022-09-02T04:08:41.645Z,20.57
2022-09-02T04:11:09.973Z,20.54
2022-09-02T04:13:37.086Z,20.47
2022-09-02T04:16:10.629Z,20.39
2022-09-02T04:18:37.826Z,20.40
2022-09-02T04:21:04.582Z,20.41
2022-09-02T04:23:32.567Z,20.38
2022-09-02T04:26:03.261Z,20.39
2022-09-02T04:28:29.774Z,20.40
2022-09-02T04:30:56.293Z,20.37
2022-09-02T04:33:22.928Z,20.41
2022-09-02T04:35:49.577Z,20.38
2022-09-02T04:38:16.843Z,20.43
2022-09-02T04:40:45.672Z,20.43
2022-09-02T04:43:13.411Z,20.45
2022-09-02T04:45:44.932Z,20.44
2022-09-02T04:48:12.218Z,20.41
2022-09-02T04:50:40.618Z,20.44
2022-09-02T04:53:07.455Z,20.42
2022-09-02T04:55:34.695Z,20.39
2022-09-02T04:58:01.765Z,20.39
2022-09-02T05:00:28.309Z,20.48
2022-09-02T05:02:55.072Z,20.45
2022-09-02T05:05:21.898Z,20.40
2022-09-02T05:07:48.493Z,20.38
2022-09-02T05:10:16.449Z,20.42
2022-09-02T05:12:43.790Z,20.41
2022-09-02T05:15:12.234Z,20.35
2022-09-02T05:17:39.719Z,20.31
2022-09-02T05:20:08.302Z,20.33
2022-09-02T05:22:36.037Z,20.40
2022-09-02T05:25:07.485Z,20.36
2022-09-02T05:27:34.146Z,20.38
2022-09-02T05:30:00.639Z,20.33
2022-09-02T05:32:27.841Z,20.31
2022-09-02T05:34:56.044Z,20.31
2022-09-02T05:37:24.570Z,20.35
2022-09-02T05:39:52.414Z,20.32
2022-09-02T05:42:20.661Z,20.38
2022-09-02T05:44:47.494Z,20.41
2022-09-02T05:47:14.038Z,20.40
2022-09-02T05:49:40.513Z,20.42
2022-09-02T05:52:10.236Z,20.44
2022-09-02T05:54:38.290Z,20.50
2022-09-02T05:57:09.256Z,20.56
2022-09-02T05:59:40.053Z,20.56
2022-09-02T06:02:07.200Z,20.58
2022-09-02T06:04:41.510Z,20.60
2022-09-02T06:07:08.086Z,20.59
2022-09-02T06:09:38.365Z,20.64
2022-09-02T06:12:05.157Z,20.63
2022-09-02T06:14:31.907Z,20.68
2022-09-02T06:16:59.446Z,20.69
2022-09-02T06:19:28.917Z,20.76
2022-09-02T06:21:56.787Z,20.75
2022-09-02T06:24:23.391Z,20.77
2022-09-02T06:26:50.393Z,20.86
2022-09-02T06:29:24.451Z,20.89
2022-09-02T06:31:51.724Z,20.95
2022-09-02T06:34:21.669Z,20.96
2022-09-02T06:36:50.664Z,21.01
2022-09-02T06:39:20.274Z,21.20
2022-09-02T06:41:49.002Z,21.25
2022-09-02T06:44:17.212Z,21.38
2022-09-02T06:46:47.814Z,21.58
2022-09-02T06:49:16.443Z,21.63
2022-09-02T06:51:46.089Z,21.60
2022-09-02T06:54:15.866Z,21.54
2022-09-02T06:56:49.095Z,21.54
2022-09-02T06:59:17.799Z,21.59
2022-09-02T07:01:44.717Z,21.53
2022-09-02T07:04:29.969Z,21.55
2022-09-02T07:06:56.888Z,21.54
2022-09-02T07:09:33.209Z,21.54
2022-09-02T07:12:05.014Z,21.48
2022-09-02T07:14:35.895Z,21.52
2022-09-02T07:17:02.478Z,21.60
2022-09-02T07:19:29.087Z,21.69
2022-09-02T07:21:55.687Z,21.77
2022-09-02T07:24:22.560Z,21.87
2022-09-02T07:26:50.028Z,21.84
2022-09-02T07:29:22.274Z,21.95
2022-09-02T07:31:49.176Z,21.91
2022-09-02T07:34:16.532Z,21.89
2022-09-02T07:36:45.608Z,21.86
2022-09-02T07:39:14.305Z,21.83
2022-09-02T07:41:42.530Z,21.88
2022-09-02T07:44:10.063Z,22.08
2022-09-02T07:46:36.990Z,22.22
2022-09-02T07:49:09.301Z,22.17
2022-09-02T07:51:39.031Z,22.28
2022-09-02T07:54:08.166Z,22.66
2022-09-02T07:56:35.258Z,23.05
2022-09-02T07:59:03.030Z,23.34
2022-09-02T08:01:29.843Z,23.69
2022-09-02T08:03:57.932Z,23.93
2022-09-02T08:06:27.798Z,24.13
2022-09-02T08:09:01.853Z,24.34
2022-09-02T08:11:29.108Z,24.34
2022-09-02T08:13:55.694Z,24.29
2022-09-02T08:16:22.631Z,23.95
2022-09-02T08:18:49.277Z,23.83
2022-09-02T08:21:15.775Z,24.20
2022-09-02T08:23:42.615Z,24.36
2022-09-02T08:26:11.209Z,24.59
2022-09-02T08:28:37.756Z,23.97
2022-09-02T08:31:08.208Z,23.66
2022-09-02T08:33:35.717Z,23.39
2022-09-02T08:38:29.878Z,23.25
2022-09-02T08:40:56.636Z,23.27
2022-09-02T08:43:58.245Z,23.29
2022-09-02T08:46:27.461Z,23.30
2022-09-02T08:49:00.033Z,22.96
2022-09-02T08:51:33.752Z,23.36
2022-09-02T08:54:12.844Z,23.70
2022-09-02T08:56:40.110Z,23.60
2022-09-02T08:59:07.175Z,23.73
2022-09-02T09:01:47.818Z,23.42
2022-09-02T09:04:46.883Z,23.10
2022-09-02T09:07:34.362Z,23.12
2022-09-02T09:10:16.397Z,23.29
2022-09-02T09:12:42.951Z,23.33
2022-09-02T09:15:19.466Z,23.10
2022-09-02T09:17:54.249Z,22.70
2022-09-02T09:20:25.355Z,22.79
2022-09-02T09:22:59.205Z,23.06
2022-09-02T09:25:31.053Z,23.28
2022-09-02T09:28:01.862Z,23.49
2022-09-02T09:30:29.780Z,23.47
2022-09-02T09:33:00.134Z,23.88
2022-09-02T09:35:46.482Z,24.23
2022-09-02T09:38:14.180Z,24.39
2022-09-02T09:40:41.160Z,24.27
2022-09-02T09:43:14.523Z,24.29
2022-09-02T09:45:51.534Z,24.25
2022-09-02T09:48:23.314Z,25.04
2022-09-02T09:51:11.295Z,24.94
2022-09-02T09:53:39.050Z,24.96
2022-09-02T09:56:22.799Z,24.80
2022-09-02T09:58:50.470Z,25.15
2022-09-02T10:01:19.969Z,25.28
2022-09-02T10:03:57.193Z,25.62
2022-09-02T10:06:36.378Z,25.92
2022-09-02T10:09:25.516Z,25.17
2022-09-02T10:12:00.758Z,25.17
2022-09-02T10:14:36.847Z,25.11
2022-09-02T10:17:22.166Z,25.80
2022-09-02T10:20:11.994Z,26.11
2022-09-02T10:22:58.813Z,26.35
2022-09-02T10:25:34.014Z,26.41
2022-09-02T10:28:28.078Z,26.05
2022-09-02T10:31:25.910Z,26.32
2022-09-02T10:34:10.616Z,26.27
2022-09-02T10:37:05.314Z,26.61
2022-09-02T10:39:56.948Z,26.53
2022-09-02T10:43:04.513Z,26.52
2022-09-02T10:45:43.993Z,27.02
2022-09-02T10:48:35.684Z,27.50
2022-09-02T10:51:27.604Z,27.46
2022-09-02T10:54:18.883Z,27.57
2022-09-02T10:56:57.530Z,27.49
2022-09-02T10:59:31.893Z,27.73
2022-09-02T11:02:15.025Z,27.95
2022-09-02T11:04:50.971Z,28.13
2022-09-02T11:07:28.384Z,28.03
2022-09-02T11:10:03.762Z,28.45
2022-09-02T11:12:38.373Z,28.92
2022-09-02T11:15:27.125Z,29.47
2022-09-02T11:18:07.555Z,29.23
2022-09-02T11:20:44.427Z,29.00
2022-09-02T11:23:24.423Z,29.01
2022-09-02T11:25:51.146Z,29.33
2022-09-02T11:28:46.643Z,29.47
2022-09-02T11:31:22.645Z,29.62
2022-09-02T11:36:40.297Z,29.29
2022-09-02T11:39:36.574Z,29.62
2022-09-02T11:42:27.902Z,29.92
2022-09-02T11:45:22.525Z,29.50
2022-09-02T11:48:04.853Z,29.78
2022-09-02T11:50:39.630Z,29.69
2022-09-02T11:53:25.183Z,29.10
2022-09-02T11:55:59.768Z,29.03
2022-09-02T11:58:37.344Z,29.21
2022-09-02T12:01:25.644Z,29.82
2022-09-02T12:04:48.483Z,31.17
2022-09-02T12:07:26.631Z,30.94
2022-09-02T12:10:00.462Z,30.94
2022-09-02T12:12:39.787Z,31.90
2022-09-02T12:15:06.881Z,31.98
2022-09-02T12:17:40.120Z,32.47
2022-09-02T12:20:42.013Z,30.00
2022-09-02T12:23:10.801Z,28.94
2022-09-02T12:25:46.092Z,28.39
2022-09-02T12:28:26.078Z,28.64
2022-09-02T12:31:01.693Z,29.33
2022-09-02T12:33:34.398Z,29.52
2022-09-02T12:36:05.001Z,29.21
2022-09-02T12:38:40.210Z,28.99
2022-09-02T12:41:13.461Z,28.67
2022-09-02T12:43:44.671Z,28.61
2022-09-02T12:46:31.784Z,28.50
2022-09-02T12:49:14.491Z,28.49
2022-09-02T12:51:55.100Z,28.49
2022-09-02T12:54:49.765Z,28.08
2022-09-02T12:57:18.667Z,27.96
2022-09-02T12:59:47.566Z,27.76
2022-09-02T13:03:10.278Z,28.03
2022-09-02T13:05:58.453Z,28.14
2022-09-02T13:09:01.746Z,28.27
2022-09-02T13:11:56.701Z,28.33
2022-09-02T13:14:54.845Z,28.53
2022-09-02T13:17:37.067Z,28.13
2022-09-02T13:20:37.977Z,28.01
2022-09-02T13:23:38.740Z,27.73
2022-09-02T13:26:48.363Z,27.43
2022-09-02T13:29:44.397Z,27.22
2022-09-02T13:32:16.726Z,27.23
2022-09-02T13:34:45.892Z,27.00
2022-09-02T13:37:37.115Z,26.97
2022-09-02T13:40:25.698Z,26.80
2022-09-02T13:42:54.856Z,26.65
2022-09-02T13:45:24.328Z,26.62
2022-09-02T13:47:57.223Z,26.59
2022-09-02T13:50:27.650Z,26.71
2022-09-02T13:55:58.441Z,26.60
2022-09-02T13:58:31.299Z,26.62
2022-09-02T14:01:17.078Z,26.69
2022-09-02T14:03:50.275Z,26.72
2022-09-02T14:06:20.698Z,27.06
2022-09-02T14:08:54.646Z,26.93
2022-09-02T14:11:21.654Z,26.90
2022-09-02T14:13:50.399Z,26.61
2022-09-02T14:16:35.090Z,26.46
2022-09-02T14:19:15.181Z,26.61
2022-09-02T14:21:49.398Z,26.57
2022-09-02T14:24:21.192Z,26.87
2022-09-02T14:26:50.520Z,27.38
2022-09-02T14:29:18.954Z,27.37
2022-09-02T14:31:46.723Z,27.52
2022-09-02T14:34:33.923Z,27.51
2022-09-02T14:37:01.217Z,27.33
2022-09-02T14:39:27.858Z,27.29
2022-09-02T14:41:56.100Z,27.20
2022-09-02T14:44:35.826Z,27.10
2022-09-02T14:47:06.261Z,27.79
2022-09-02T14:49:41.787Z,27.98
2022-09-02T14:52:28.816Z,28.45
2022-09-02T14:54:57.979Z,29.06
2022-09-02T14:57:32.623Z,29.56
2022-09-02T15:00:05.389Z,30.04
2022-09-02T15:02:34.153Z,30.47
2022-09-02T15:05:03.411Z,30.08
2022-09-02T15:07:30.575Z,33.31
2022-09-02T15:09:57.191Z,36.23
2022-09-02T15:12:46.780Z,31.18
2022-09-02T15:15:13.404Z,29.83
2022-09-02T15:17:39.927Z,29.66
2022-09-02T15:20:08.535Z,29.01
2022-09-02T15:22:38.556Z,28.93
2022-09-02T15:25:08.014Z,28.49
2022-09-02T15:27:35.503Z,28.32
2022-09-02T15:30:02.052Z,28.02
2022-09-02T15:32:28.572Z,27.87
2022-09-02T15:34:55.081Z,27.75
2022-09-02T15:37:21.588Z,27.36
2022-09-02T15:39:50.341Z,27.23
2022-09-02T15:42:18.336Z,26.93
2022-09-02T15:44:45.562Z,26.76
2022-09-02T15:47:12.072Z,26.62
2022-09-02T15:49:38.614Z,26.40
2022-09-02T15:52:06.030Z,26.34
2022-09-02T15:54:32.583Z,26.22
2022-09-02T15:56:59.762Z,26.17
2022-09-02T15:59:27.437Z,26.07
2022-09-02T16:01:56.506Z,26.11
2022-09-02T16:04:23.508Z,25.99
2022-09-02T16:06:54.813Z,25.94
2022-09-02T16:09:21.477Z,25.93
2022-09-02T16:11:50.713Z,25.90
2022-09-02T16:14:20.913Z,25.89
2022-09-02T16:16:49.274Z,25.82
2022-09-02T16:19:16.246Z,25.83
2022-09-02T16:21:42.849Z,25.68
2022-09-02T16:24:09.517Z,25.62
2022-09-02T16:26:38.585Z,25.49
2022-09-02T16:29:07.757Z,25.44
2022-09-02T16:31:38.407Z,25.46
2022-09-02T16:34:07.262Z,25.48
2022-09-02T16:36:36.653Z,25.34
2022-09-02T16:39:05.261Z,25.32
2022-09-02T16:41:37.668Z,25.03
2022-09-02T16:44:07.138Z,24.75
2022-09-02T16:46:35.945Z,24.89
2022-09-02T16:49:03.507Z,24.94
2022-09-02T16:51:33.419Z,24.97
2022-09-02T16:54:02.332Z,25.03
2022-09-02T16:56:30.623Z,24.98
2022-09-02T16:59:01.858Z,25.06
2022-09-02T17:01:32.326Z,25.04
2022-09-02T17:04:00.322Z,24.88
2022-09-02T17:06:28.000Z,24.88
2022-09-02T17:08:54.633Z,24.94
2022-09-02T17:11:23.818Z,24.87
2022-09-02T17:13:56.226Z,24.76
2022-09-02T17:16:25.614Z,24.42
2022-09-02T17:18:53.827Z,24.54
2022-09-02T17:21:47.854Z,24.58
2022-09-02T17:24:15.617Z,24.57
2022-09-02T17:26:46.709Z,24.48
2022-09-02T17:29:47.080Z,24.44
2022-09-02T17:32:06.233Z,24.30
2022-09-02T17:34:33.842Z,24.37
2022-09-02T17:37:00.451Z,24.44
2022-09-02T17:39:27.088Z,24.47
2022-09-02T17:42:00.026Z,24.65
2022-09-02T17:44:35.927Z,24.75
2022-09-02T17:47:18.687Z,24.72
2022-09-02T17:49:45.583Z,24.68
2022-09-02T17:52:15.378Z,24.69
2022-09-02T17:54:42.764Z,24.65
2022-09-02T17:57:48.410Z,24.63
2022-09-02T18:00:22.544Z,24.59
2022-09-02T18:03:31.168Z,24.56
2022-09-02T18:06:07.209Z,24.52
2022-09-02T18:08:54.780Z,24.46
2022-09-02T18:11:22.476Z,24.34
2022-09-02T18:13:55.245Z,24.32
2022-09-02T18:16:39.823Z,24.27
2022-09-02T18:19:37.549Z,24.22
2022-09-02T18:22:10.384Z,24.17
2022-09-02T18:24:48.387Z,24.11
2022-09-02T18:27:30.459Z,24.19
2022-09-02T18:30:12.033Z,24.15
2022-09-02T18:32:51.933Z,24.09
2022-09-02T18:35:29.286Z,23.97
2022-09-02T18:38:18.147Z,23.97
2022-09-02T18:40:57.010Z,23.91
2022-09-02T18:43:42.495Z,23.85
2022-09-02T18:46:12.049Z,23.79
2022-09-02T18:48:39.357Z,23.78
2022-09-02T18:51:16.448Z,23.77
2022-09-02T18:53:48.694Z,23.79
2022-09-02T18:56:18.247Z,23.77
2022-09-02T18:58:56.415Z,23.75
2022-09-02T19:01:27.277Z,23.73
2022-09-02T19:03:53.874Z,23.76
2022-09-02T19:06:23.620Z,23.77
2022-09-02T19:08:58.576Z,23.73
2022-09-02T19:11:25.889Z,23.69
2022-09-02T19:14:00.870Z,23.63
2022-09-02T19:16:32.024Z,23.64
2022-09-02T19:18:58.899Z,23.55
2022-09-02T19:21:47.303Z,23.52
2022-09-02T19:24:21.370Z,23.48
2022-09-02T19:26:49.010Z,23.43
2022-09-02T19:29:17.561Z,23.46
2022-09-02T19:31:46.669Z,23.40
2022-09-02T19:34:16.321Z,23.36
2022-09-02T19:36:47.009Z,23.28
2022-09-02T19:39:13.555Z,23.22
2022-09-02T19:41:40.505Z,23.20
2022-09-02T19:44:07.001Z,23.11
2022-09-02T19:47:15.298Z,23.10
2022-09-02T19:49:20.383Z,23.07
2022-09-02T19:51:47.538Z,23.02
2022-09-02T19:54:15.225Z,22.96
2022-09-02T19:56:42.649Z,22.97
2022-09-02T19:59:10.394Z,22.97
2022-09-02T20:01:38.291Z,22.86
2022-09-02T20:04:06.261Z,22.84
2022-09-02T20:06:33.111Z,22.88
2022-09-02T20:08:59.672Z,22.85
2022-09-02T20:11:27.618Z,22.82
2022-09-02T20:13:54.202Z,22.87
2022-09-02T20:16:23.763Z,22.88
2022-09-02T20:18:53.079Z,22.85
2022-09-02T20:21:43.214Z,22.83
2022-09-02T20:24:12.405Z,22.79
2022-09-02T20:26:51.983Z,22.73
2022-09-02T20:29:40.021Z,22.73
2022-09-02T20:32:34.042Z,22.74
2022-09-02T20:35:11.558Z,22.65
2022-09-02T20:38:07.415Z,22.65
2022-09-02T20:40:45.899Z,22.61
2022-09-02T20:43:35.125Z,22.58
2022-09-02T20:46:13.820Z,22.55
2022-09-02T20:48:46.614Z,22.48
2022-09-02T20:51:29.942Z,22.48
2022-09-02T20:54:11.119Z,22.49
2022-09-02T20:57:00.876Z,22.48
2022-09-02T21:00:02.327Z,22.46
2022-09-02T21:02:33.492Z,22.41
2022-09-02T21:05:22.565Z,22.48
2022-09-02T21:07:56.972Z,22.41
2022-09-02T21:10:47.747Z,22.41
2022-09-02T21:13:14.201Z,22.37
2022-09-02T21:15:54.990Z,22.37
2022-09-02T21:18:48.807Z,22.31
2022-09-02T21:21:35.253Z,22.23
2022-09-02T21:24:05.269Z,22.15
2022-09-02T21:26:58.433Z,22.12
2022-09-02T21:29:37.779Z,22.09
2022-09-02T21:32:19.403Z,22.08
2022-09-02T21:34:55.641Z,22.04
2022-09-02T21:37:23.202Z,22.01
2022-09-02T21:39:55.647Z,21.94
2022-09-02T21:42:32.358Z,21.95
2022-09-02T21:45:10.862Z,21.89
2022-09-02T21:47:57.362Z,21.90
2022-09-02T21:50:28.946Z,21.86
2022-09-02T21:53:01.225Z,21.83
2022-09-02T21:55:46.259Z,21.78
2022-09-02T21:58:18.783Z,21.84
2022-09-02T22:01:13.771Z,21.82
2022-09-02T22:03:48.030Z,21.83
2022-09-02T22:06:33.155Z,21.80
2022-09-02T22:09:14.234Z,21.87
2022-09-02T22:12:14.770Z,21.87
2022-09-02T22:15:07.842Z,21.90
2022-09-02T22:17:51.290Z,21.90
2022-09-02T22:20:22.241Z,21.94
2022-09-02T22:22:55.832Z,21.91
2022-09-02T22:25:24.533Z,21.91
2022-09-02T22:27:57.250Z,21.93
2022-09-02T22:30:23.789Z,21.89
2022-09-02T22:32:57.058Z,21.88
2022-09-02T22:35:27.806Z,21.89
2022-09-02T22:38:10.646Z,21.86
2022-09-02T22:40:46.210Z,21.85
2022-09-02T22:43:18.633Z,21.78
2022-09-02T22:46:12.543Z,21.79
2022-09-02T22:49:11.846Z,21.78
2022-09-02T22:52:09.093Z,21.77
2022-09-02T22:54:35.789Z,21.73
2022-09-02T22:57:02.229Z,21.59
2022-09-02T22:59:51.491Z,21.61
2022-09-02T23:02:27.973Z,21.62
2022-09-02T23:05:30.942Z,21.62
2022-09-02T23:07:57.430Z,21.55
2022-09-02T23:10:26.970Z,21.55
2022-09-02T23:13:36.233Z,21.60
2022-09-02T23:16:27.328Z,21.60
2022-09-02T23:19:16.454Z,21.61
2022-09-02T23:21:54.367Z,21.66
2022-09-02T23:24:45.103Z,21.66
2022-09-02T23:27:11.631Z,21.54
2022-09-02T23:29:41.323Z,21.49
2022-09-02T23:32:29.501Z,21.48
2022-09-02T23:35:09.251Z,21.43
2022-09-02T23:38:16.173Z,21.43
2022-09-02T23:40:45.821Z,21.41
2022-09-02T23:43:18.418Z,21.40
2022-09-02T23:45:47.412Z,21.39
2022-09-02T23:48:13.936Z,21.37
2022-09-02T23:51:10.444Z,21.34
2022-09-02T23:53:49.570Z,21.32
2022-09-02T23:56:37.887Z,21.32
2022-09-02T23:59:05.224Z,21.26
